sensor_id;sensor_type;location;lat;lon;timestamp;temperature;humidity
55151;DHT22;41041;43.162;20.538;2023-09-18T00:21:28;435.90;2355.20
55151;DHT22;41041;43.162;20.538;2023-09-18T00:33:43;435.80;2355.20
55151;DHT22;41041;43.162;20.538;2023-09-18T00:36:10;435.40;2355.20
55151;DHT22;41041;43.162;20.538;2023-09-18T00:38:36;435.50;2355.20
55151;DHT22;41041;43.162;20.538;2023-09-18T08:56:01;563.40;2432.00
55151;DHT22;41041;43.162;20.538;2023-09-18T08:58:37;563.20;2432.00
55151;DHT22;41041;43.162;20.538;2023-09-18T09:01:06;563.20;2432.00
55151;DHT22;41041;43.162;20.538;2023-09-18T09:03:44;563.50;2432.00
55151;DHT22;41041;43.162;20.538;2023-09-18T09:58:34;589.70;2432.00
55151;DHT22;41041;43.162;20.538;2023-09-18T10:01:03;589.50;2432.00
55151;DHT22;41041;43.162;20.538;2023-09-18T10:03:38;589.60;2432.00
55151;DHT22;41041;43.162;20.538;2023-09-18T10:06:05;614.50;2432.00
55151;DHT22;41041;43.162;20.538;2023-09-18T10:08:32;589.70;2432.00
55151;DHT22;41041;43.162;20.538;2023-09-18T10:11:07;614.40;2432.00
55151;DHT22;41041;43.162;20.538;2023-09-18T10:13:50;614.70;2432.00
55151;DHT22;41041;43.162;20.538;2023-09-18T10:16:19;614.50;2432.00
55151;DHT22;41041;43.162;20.538;2023-09-18T13:40:11;742.40;2432.00
55151;DHT22;41041;43.162;20.538;2023-09-18T13:42:40;717.70;2432.00
55151;DHT22;41041;43.162;20.538;2023-09-18T13:45:06;717.70;2432.00
55151;DHT22;41041;43.162;20.538;2023-09-18T13:47:33;717.70;2432.00
55151;DHT22;41041;43.162;20.538;2023-09-18T13:50:11;742.40;2432.00
55151;DHT22;41041;43.162;20.538;2023-09-18T13:52:39;742.50;2432.00
55151;DHT22;41041;43.162;20.538;2023-09-18T13:55:05;742.50;2432.00
55151;DHT22;41041;43.162;20.538;2023-09-18T14:17:49;768.50;2304.00
55151;DHT22;41041;43.162;20.538;2023-09-18T14:20:15;768.50;2304.00
55151;DHT22;41041;43.162;20.538;2023-09-18T14:22:43;768.40;2252.80
55151;DHT22;41041;43.162;20.538;2023-09-18T14:25:09;768.40;2304.00
55151;DHT22;41041;43.162;20.538;2023-09-18T14:27:36;768.50;2252.80
55151;DHT22;41041;43.162;20.538;2023-09-18T14:34:59;768.50;2252.80
55151;DHT22;41041;43.162;20.538;2023-09-18T14:37:27;768.70;2329.60
55151;DHT22;41041;43.162;20.538;2023-09-18T14:39:54;768.90;2329.60
55151;DHT22;41041;43.162;20.538;2023-09-18T14:42:20;768.90;2227.20
55151;DHT22;41041;43.162;20.538;2023-09-18T14:44:46;768.90;2227.20
55151;DHT22;41041;43.162;20.538;2023-09-18T14:47:12;768.70;2252.80
55151;DHT22;41041;43.162;20.538;2023-09-18T14:49:38;793.80;2278.40
55151;DHT22;41041;43.162;20.538;2023-09-18T14:52:05;768.90;2252.80
55151;DHT22;41041;43.162;20.538;2023-09-18T14:54:30;768.70;2227.20
55151;DHT22;41041;43.162;20.538;2023-09-18T14:57:06;768.70;2252.80
55151;DHT22;41041;43.162;20.538;2023-09-18T14:59:31;768.50;2201.60
55151;DHT22;41041;43.162;20.538;2023-09-18T15:01:57;768.50;2278.40
55151;DHT22;41041;43.162;20.538;2023-09-18T15:04:27;768.40;2252.80
55151;DHT22;41041;43.162;20.538;2023-09-18T15:06:53;768.50;2227.20
55151;DHT22;41041;43.162;20.538;2023-09-18T15:09:18;768.50;2227.20
55151;DHT22;41041;43.162;20.538;2023-09-18T15:11:44;768.80;2201.60
55151;DHT22;41041;43.162;20.538;2023-09-18T15:16:37;768.80;2227.20
55151;DHT22;41041;43.162;20.538;2023-09-18T15:19:02;768.70;2201.60
55151;DHT22;41041;43.162;20.538;2023-09-18T15:21:31;768.80;2227.20
55151;DHT22;41041;43.162;20.538;2023-09-18T15:23:57;768.70;2201.60
55151;DHT22;41041;43.162;20.538;2023-09-18T15:26:23;768.80;2227.20
55151;DHT22;41041;43.162;20.538;2023-09-18T15:28:49;793.60;2201.60
55151;DHT22;41041;43.162;20.538;2023-09-18T15:31:15;793.70;2201.60
55151;DHT22;41041;43.162;20.538;2023-09-18T15:33:41;793.90;2176.00
55151;DHT22;41041;43.162;20.538;2023-09-18T16:35:02;691.90;2432.00
55151;DHT22;41041;43.162;20.538;2023-09-18T16:37:31;691.60;2432.00
55151;DHT22;41041;43.162;20.538;2023-09-18T17:04:36;640.80;2432.00
55151;DHT22;41041;43.162;20.538;2023-09-18T17:07:06;640.50;2432.00
55151;DHT22;41041;43.162;20.538;2023-09-18T17:09:34;640.30;2432.00
55151;DHT22;41041;43.162;20.538;2023-09-18T17:12:00;640.30;2432.00
55151;DHT22;41041;43.162;20.538;2023-09-18T17:14:25;640.00;2432.00
55151;DHT22;41041;43.162;20.538;2023-09-18T18:03:18;589.50;2432.00
55151;DHT22;41041;43.162;20.538;2023-09-18T18:05:45;589.40;2432.00
55151;DHT22;41041;43.162;20.538;2023-09-18T18:08:11;589.10;2432.00
55151;DHT22;41041;43.162;20.538;2023-09-18T18:10:45;589.20;2432.00
55151;DHT22;41041;43.162;20.538;2023-09-18T18:20:30;589.10;2432.00
55151;DHT22;41041;43.162;20.538;2023-09-18T18:32:44;563.90;2432.00
55151;DHT22;41041;43.162;20.538;2023-09-18T18:35:10;563.60;2432.00
55151;DHT22;41041;43.162;20.538;2023-09-18T18:37:36;563.60;2432.00
55151;DHT22;41041;43.162;20.538;2023-09-18T18:40:11;563.50;2432.00
55151;DHT22;41041;43.162;20.538;2023-09-18T18:42:38;563.50;2432.00
55151;DHT22;41041;43.162;20.538;2023-09-18T18:45:05;563.50;2432.00
55151;DHT22;41041;43.162;20.538;2023-09-18T18:47:31;563.40;2432.00
55151;DHT22;41041;43.162;20.538;2023-09-18T18:49:57;563.30;2432.00
55151;DHT22;41041;43.162;20.538;2023-09-18T18:52:22;563.30;2432.00
55151;DHT22;41041;43.162;20.538;2023-09-18T18:54:48;563.30;2432.00
55151;DHT22;41041;43.162;20.538;2023-09-18T18:57:16;563.40;2432.00
55151;DHT22;41041;43.162;20.538;2023-09-18T18:59:42;563.40;2432.00
55151;DHT22;41041;43.162;20.538;2023-09-18T19:02:08;563.30;2432.00
55151;DHT22;41041;43.162;20.538;2023-09-18T20:25:52;537.90;2406.40
55151;DHT22;41041;43.162;20.538;2023-09-18T20:28:18;537.90;2406.40
55151;DHT22;41041;43.162;20.538;2023-09-18T20:35:41;537.60;2406.40
55151;DHT22;41041;43.162;20.538;2023-09-18T20:38:07;537.60;2406.40
55151;DHT22;41041;43.162;20.538;2023-09-18T20:40:33;512.80;2380.80
